Time;durP1;ratioP1;P1;durP2;ratioP2;P2;SDS_P1;SDS_P2;PMS_P1;PMS_P2;Temp;Humidity;BMP_temperature;BMP_pressure;BME280_temperature;BME280_humidity;BME280_pressure;Samples;Min_cycle;Max_cycle;Signal;HPM_P1;HPM_P2
2022/07/13 00:01:18;;;;;;;7.37;4.87;;;;;;;13.73;64.83;98991.56;4974114;28;20164;-85
2022/07/13 00:03:43;;;;;;;6.47;4.70;;;;;;;14.25;65.99;99116.72;4974945;28;20215;-84
2022/07/13 00:06:09;;;;;;;6.37;4.53;;;;;;;16.52;66.89;99510.69;4976177;28;20552;-84
2022/07/13 00:08:34;;;;;;;9.40;4.43;;;;;;;16.37;67.47;99514.59;4974233;28;20516;-84
2022/07/13 00:11:00;;;;;;;7.40;4.80;;;;;;;17.30;66.48;99595.03;4974043;28;20178;-83
2022/07/13 00:13:25;;;;;;;6.37;4.50;;;;;;;16.43;65.29;99453.38;4974130;28;20544;-84
2022/07/13 00:15:51;;;;;;;4.93;4.23;;;;;;;15.51;65.50;99318.56;4974116;28;20187;-84
2022/07/13 00:18:16;;;;;;;6.70;4.60;;;;;;;17.05;64.72;99585.13;4986084;28;20196;-84
2022/07/13 00:20:43;;;;;;;5.57;4.43;;;;;;;16.78;63.32;99526.63;4980208;28;20168;-83
2022/07/13 00:23:09;;;;;;;4.90;4.40;;;;;;;15.63;62.12;99346.94;4973457;28;20168;-84
2022/07/13 00:25:34;;;;;;;6.03;4.60;;;;;;;15.67;61.52;99320.63;4973603;28;20171;-84
2022/07/13 00:27:59;;;;;;;6.17;5.17;;;;;;;15.57;59.85;99288.97;4973668;28;20176;-84
2022/07/13 00:30:25;;;;;;;8.47;5.00;;;;;;;16.60;59.58;99469.97;4956391;28;20262;-83
2022/07/13 00:32:50;;;;;;;8.17;4.73;;;;;;;14.58;59.80;99126.88;4973539;28;20172;-83
2022/07/13 00:35:16;;;;;;;5.17;4.67;;;;;;;17.30;59.91;99602.72;4971698;28;20172;-84
2022/07/13 00:37:43;;;;;;;6.40;4.80;;;;;;;14.81;59.75;99184.31;4972412;28;20211;-83
2022/07/13 00:40:09;;;;;;;8.70;4.83;;;;;;;15.45;59.99;99303.94;4973244;28;20247;-85
2022/07/13 00:42:34;;;;;;;5.87;4.97;;;;;;;15.05;59.53;99218.00;4973434;28;20203;-84
2022/07/13 00:45:00;;;;;;;6.00;4.73;;;;;;;15.63;59.03;99336.72;4973486;28;20692;-85
2022/07/13 00:47:31;;;;;;;5.17;4.67;;;;;;;14.08;58.82;99026.34;4973411;28;20160;-86
2022/07/13 00:49:57;;;;;;;5.03;4.50;;;;;;;15.45;58.27;99260.59;4973364;28;20164;-85
2022/07/13 00:52:23;;;;;;;7.60;4.60;;;;;;;15.23;58.32;99228.63;4973747;28;20186;-84
2022/07/13 00:54:49;;;;;;;4.93;4.43;;;;;;;17.41;58.31;99597.81;4973266;28;20680;-85
2022/07/13 00:57:15;;;;;;;5.50;4.17;;;;;;;17.37;58.00;99607.13;4973283;28;20199;-84
2022/07/13 00:59:40;;;;;;;6.57;4.23;;;;;;;16.73;57.91;99474.50;4973342;28;20171;-84
2022/07/13 01:02:06;;;;;;;8.63;4.33;;;;;;;16.63;57.74;99451.28;4973169;28;20247;-84
2022/07/13 01:04:31;;;;;;;5.77;4.53;;;;;;;15.57;58.23;99300.84;4973513;28;20182;-84
2022/07/13 01:06:58;;;;;;;5.53;4.40;;;;;;;13.93;58.50;99026.81;4973620;28;20183;-84
2022/07/13 01:09:25;;;;;;;5.53;4.50;;;;;;;15.30;57.95;99286.59;4973420;28;20168;-85
2022/07/13 01:11:52;;;;;;;5.87;4.43;;;;;;;14.19;58.15;99088.56;4973959;28;20168;-85
2022/07/13 01:14:17;;;;;;;6.17;4.50;;;;;;;16.52;58.15;99458.69;4973855;28;20283;-83
2022/07/13 01:16:43;;;;;;;5.23;4.57;;;;;;;14.97;58.35;99213.59;4973234;28;20196;-85
2022/07/13 01:19:11;;;;;;;6.00;4.30;;;;;;;16.10;58.42;99402.44;4973465;28;20184;-85
2022/07/13 01:21:40;;;;;;;6.00;4.63;;;;;;;16.06;58.73;99425.31;4973621;28;20168;-84
2022/07/13 01:24:06;;;;;;;5.33;4.70;;;;;;;16.27;58.71;99436.88;4973775;28;20640;-85
2022/07/13 01:26:32;;;;;;;6.57;4.80;;;;;;;16.41;58.46;99462.72;4973698;28;20168;-85
2022/07/13 01:28:58;;;;;;;6.43;4.60;;;;;;;14.50;58.56;99124.13;4973449;28;20191;-86
2022/07/13 01:31:36;;;;;;;9.47;4.90;;;;;;;17.08;59.03;99583.47;4973460;28;20621;-86
2022/07/13 01:34:03;;;;;;;7.07;4.70;;;;;;;16.91;59.11;99559.28;4974282;28;20164;-85
2022/07/13 01:36:29;;;;;;;9.87;4.70;;;;;;;14.05;59.06;99077.16;4977109;28;20522;-86
2022/07/13 01:38:56;;;;;;;7.83;4.43;;;;;;;17.09;59.54;99589.47;4976000;28;20211;-85
2022/07/13 01:41:21;;;;;;;7.27;4.87;;;;;;;13.18;58.96;98939.31;4976945;28;20176;-86
2022/07/13 01:43:48;;;;;;;4.93;4.43;;;;;;;14.59;58.58;99187.16;4977167;28;20168;-83
2022/07/13 01:46:14;;;;;;;5.63;4.50;;;;;;;13.44;57.98;98956.09;4976738;28;20286;-84
2022/07/13 01:48:40;;;;;;;7.10;4.50;;;;;;;14.42;57.92;99148.56;4977267;28;20164;-85
2022/07/13 01:51:05;;;;;;;5.53;4.50;;;;;;;14.73;58.04;99186.69;4977020;28;20172;-85
2022/07/13 01:53:31;;;;;;;7.27;4.90;;;;;;;14.59;58.42;99154.91;4976806;28;20637;-84
2022/07/13 01:55:56;;;;;;;7.07;4.70;;;;;;;14.99;58.20;99222.13;4975404;28;20172;-84
2022/07/13 01:58:22;;;;;;;5.10;4.60;;;;;;;15.19;58.39;99254.03;4976490;28;20242;-84
2022/07/13 02:00:47;;;;;;;6.43;4.80;;;;;;;14.43;58.59;99175.75;4977032;28;20629;-84
2022/07/13 02:03:12;;;;;;;5.60;4.60;;;;;;;15.47;58.50;99314.22;4976445;28;20164;-84
2022/07/13 02:05:38;;;;;;;5.27;4.50;;;;;;;16.30;58.69;99451.41;4975586;28;20227;-83
2022/07/13 02:08:04;;;;;;;6.23;4.80;;;;;;;16.90;59.24;99584.78;4976130;28;20168;-84
2022/07/13 02:10:35;;;;;;;5.97;4.60;;;;;;;16.85;59.45;99574.47;4976183;28;20267;-84
2022/07/13 02:13:03;;;;;;;6.10;4.50;;;;;;;16.80;59.48;99578.63;4976501;28;20172;-84
2022/07/13 02:15:28;;;;;;;7.20;4.70;;;;;;;16.76;59.79;99570.84;4976398;28;20166;-84
2022/07/13 02:17:54;;;;;;;6.57;4.80;;;;;;;14.70;59.44;99219.72;4976275;28;20207;-83
2022/07/13 02:20:19;;;;;;;6.33;4.60;;;;;;;14.97;59.07;99257.75;4958995;28;20227;-85
2022/07/13 02:22:45;;;;;;;5.70;4.60;;;;;;;14.82;58.98;99208.13;4975624;28;20167;-86
2022/07/13 02:25:12;;;;;;;5.20;4.50;;;;;;;14.64;58.75;99191.56;4976957;28;20199;-85
2022/07/13 02:27:38;;;;;;;6.23;4.63;;;;;;;16.09;58.77;99444.16;4976912;28;20168;-85
2022/07/13 02:30:04;;;;;;;5.07;4.57;;;;;;;14.43;58.64;99147.75;4979039;28;20557;-84
2022/07/13 02:32:29;;;;;;;5.20;4.30;;;;;;;13.87;58.29;99075.00;4985171;28;20160;-83
2022/07/13 02:34:54;;;;;;;6.37;4.67;;;;;;;16.88;58.59;99572.00;4967949;28;20623;-84
2022/07/13 02:37:20;;;;;;;5.60;4.60;;;;;;;16.86;58.46;99571.09;4977357;28;20250;-84
2022/07/13 02:39:45;;;;;;;6.07;4.63;;;;;;;15.80;58.40;99387.31;4976793;28;20187;-84
2022/07/13 02:42:11;;;;;;;6.07;4.40;;;;;;;15.39;58.70;99331.88;4976961;28;20625;-83
2022/07/13 02:44:36;;;;;;;6.00;4.50;;;;;;;13.59;58.51;99047.16;4976688;28;20172;-82
2022/07/13 02:47:01;;;;;;;8.77;5.10;;;;;;;14.81;59.41;99254.81;4976225;28;20663;-83
2022/07/13 02:49:27;;;;;;;7.47;4.40;;;;;;;15.27;58.85;99299.28;4975766;28;20156;-84
2022/07/13 02:51:52;;;;;;;5.93;4.47;;;;;;;14.48;59.20;99201.31;4975566;28;20550;-84
2022/07/13 02:54:17;;;;;;;6.87;4.70;;;;;;;15.57;59.47;99377.41;4976255;28;20271;-83
2022/07/13 02:56:43;;;;;;;5.87;4.70;;;;;;;14.34;59.72;99197.59;4976224;28;20168;-83
2022/07/13 02:59:08;;;;;;;5.33;4.70;;;;;;;15.80;60.13;99456.22;4976477;28;20573;-85
2022/07/13 03:01:34;;;;;;;6.27;4.70;;;;;;;16.49;60.83;99582.16;4976111;28;20168;-84
2022/07/13 03:03:59;;;;;;;6.10;4.57;;;;;;;14.57;60.44;99272.91;4975821;28;20306;-84
2022/07/13 03:06:24;;;;;;;5.40;4.80;;;;;;;13.66;60.36;99105.00;4976339;28;20628;-84
2022/07/13 03:08:50;;;;;;;6.37;4.63;;;;;;;14.96;60.50;99331.66;4975529;28;20164;-86
2022/07/13 03:11:15;;;;;;;7.03;4.40;;;;;;;14.81;60.28;99326.16;4975940;28;20160;-86
2022/07/13 03:13:40;;;;;;;7.53;4.90;;;;;;;13.62;60.52;99109.97;4960067;28;20719;-84
2022/07/13 03:16:06;;;;;;;6.47;4.50;;;;;;;14.38;60.23;99235.91;4975963;28;20168;-85
2022/07/13 03:18:33;;;;;;;6.80;4.63;;;;;;;16.59;59.47;99578.13;4976019;28;20610;-85
2022/07/13 03:20:58;;;;;;;5.23;4.57;;;;;;;15.78;59.20;99434.03;4958641;28;20176;-86
2022/07/13 03:23:24;;;;;;;5.90;4.33;;;;;;;16.75;58.75;99593.03;4974083;28;20180;-86
2022/07/13 03:25:50;;;;;;;6.60;4.50;;;;;;;15.47;58.09;99348.25;4975484;28;20172;-86
2022/07/13 03:28:15;;;;;;;5.50;4.60;;;;;;;14.77;57.52;99201.25;4959266;28;20191;-85
2022/07/13 03:30:41;;;;;;;6.13;4.30;;;;;;;16.96;57.00;99575.56;4975635;28;20191;-85
2022/07/13 03:33:06;;;;;;;4.83;4.00;;;;;;;16.39;56.51;99482.28;4975760;28;20677;-85
2022/07/13 03:35:31;;;;;;;5.63;3.90;;;;;;;14.15;55.84;99068.91;4974718;28;20168;-85
2022/07/13 03:37:57;;;;;;;4.30;3.73;;;;;;;16.31;55.79;99448.91;4975978;28;20310;-85
2022/07/13 03:40:25;;;;;;;4.70;3.83;;;;;;;14.40;55.72;99085.66;4976276;28;20160;-86
2022/07/13 03:42:51;;;;;;;4.40;4.00;;;;;;;13.93;55.42;99011.56;4975651;28;20161;-84
2022/07/13 03:45:16;;;;;;;6.83;3.90;;;;;;;16.00;55.24;99344.34;4958460;28;20250;-86
2022/07/13 03:47:41;;;;;;;5.80;4.00;;;;;;;17.34;55.54;99585.69;4975482;28;20191;-84
2022/07/13 03:50:07;;;;;;;8.37;3.90;;;;;;;15.91;54.82;99324.56;4975104;28;20164;-87
2022/07/13 03:52:33;;;;;;;4.27;3.87;;;;;;;16.52;55.74;99446.78;4975567;28;20179;-84
2022/07/13 03:54:58;;;;;;;6.83;4.03;;;;;;;16.14;55.90;99388.91;4975961;28;20539;-84
2022/07/13 03:57:24;;;;;;;6.93;3.93;;;;;;;17.25;56.08;99580.44;4975331;28;20168;-85
2022/07/13 03:59:49;;;;;;;4.40;3.50;;;;;;;13.85;55.44;98990.16;4974484;28;20164;-85
2022/07/13 04:02:14;;;;;;;4.67;3.93;;;;;;;16.30;55.35;99400.31;4975301;28;20250;-85
2022/07/13 04:04:40;;;;;;;5.50;3.70;;;;;;;15.42;54.39;99193.31;4975126;28;20247;-85
2022/07/13 04:07:05;;;;;;;4.70;3.40;;;;;;;17.81;54.06;99579.81;4975023;28;20168;-86
2022/07/13 04:09:30;;;;;;;6.47;3.63;;;;;;;17.36;53.52;99508.13;4974906;28;20168;-85
2022/07/13 04:11:56;;;;;;;5.37;3.67;;;;;;;15.83;54.33;99241.88;4957386;28;20176;-85
2022/07/13 04:14:21;;;;;;;6.60;3.60;;;;;;;15.82;54.35;99260.56;4974682;28;20156;-85
2022/07/13 04:16:47;;;;;;;5.93;3.70;;;;;;;17.84;53.84;99615.72;4974566;28;20603;-85
2022/07/13 04:19:12;;;;;;;6.43;3.40;;;;;;;16.46;54.16;99343.56;4975951;28;20188;-85
2022/07/13 04:21:37;;;;;;;5.10;3.80;;;;;;;17.80;54.71;99583.19;4974937;28;20160;-84
2022/07/13 04:24:03;;;;;;;6.03;3.80;;;;;;;14.81;54.11;99058.56;4974946;28;20172;-85
2022/07/13 04:26:29;;;;;;;5.60;4.00;;;;;;;17.17;54.82;99467.69;4974435;28;20183;-85
2022/07/13 04:28:55;;;;;;;4.73;3.80;;;;;;;14.86;54.07;99044.25;4974192;28;20160;-84
2022/07/13 04:31:20;;;;;;;6.23;3.60;;;;;;;17.27;53.82;99461.03;4974156;28;20171;-84
2022/07/13 04:33:46;;;;;;;4.10;3.70;;;;;;;16.19;54.15;99289.38;4974364;28;20179;-85
2022/07/13 04:36:11;;;;;;;7.10;4.03;;;;;;;17.50;54.31;99491.31;4974345;28;20171;-86
2022/07/13 04:38:37;;;;;;;5.60;3.97;;;;;;;15.44;53.90;99128.75;4973842;28;20251;-85
2022/07/13 04:41:02;;;;;;;4.40;3.53;;;;;;;18.11;53.89;99582.03;4956760;28;20268;-86
2022/07/13 04:43:27;;;;;;;5.83;3.80;;;;;;;17.97;53.58;99509.19;4973497;28;20176;-86
2022/07/13 04:45:53;;;;;;;5.73;3.57;;;;;;;15.90;53.23;99151.78;4973921;28;20304;-87
2022/07/13 04:48:19;;;;;;;6.00;3.73;;;;;;;16.17;53.50;99209.31;4973716;28;20160;-85
2022/07/13 04:50:44;;;;;;;4.03;3.20;;;;;;;17.90;52.94;99487.78;4956853;28;20698;-84
2022/07/13 04:53:10;;;;;;;5.07;3.43;;;;;;;16.19;52.61;99154.00;4973617;28;20171;-85
2022/07/13 04:55:39;;;;;;;7.40;3.50;;;;;;;18.98;52.85;99597.88;4973744;28;20172;-86
2022/07/13 04:58:07;;;;;;;5.93;3.60;;;;;;;17.54;52.63;99359.16;4973683;28;20687;-83
2022/07/13 05:00:34;;;;;;;5.40;4.07;;;;;;;17.81;52.03;99403.09;4973578;28;20543;-85
2022/07/13 05:03:00;;;;;;;4.70;3.30;;;;;;;17.36;52.31;99353.72;4973478;28;20219;-85
2022/07/13 05:05:30;;;;;;;8.00;3.87;;;;;;;17.71;52.45;99397.81;4973288;28;20263;-85
2022/07/13 05:07:56;;;;;;;5.67;3.70;;;;;;;18.63;51.92;99492.25;4973072;28;20164;-84
2022/07/13 05:10:21;;;;;;;6.57;3.33;;;;;;;18.63;52.15;99511.91;4976834;28;20233;-86
2022/07/13 05:12:47;;;;;;;4.73;3.40;;;;;;;18.66;52.11;99529.91;4977273;28;20188;-85
2022/07/13 05:15:12;;;;;;;9.13;3.80;;;;;;;17.69;51.79;99332.06;4977133;28;20172;-85
2022/07/13 05:17:38;;;;;;;7.13;3.63;;;;;;;19.26;52.05;99602.53;4977284;28;20226;-84
2022/07/13 05:20:04;;;;;;;7.83;3.60;;;;;;;18.87;52.03;99501.97;4977380;28;20660;-84
2022/07/13 05:22:30;;;;;;;5.47;3.50;;;;;;;19.69;51.40;99605.63;4977282;28;20160;-84
2022/07/13 05:24:56;;;;;;;7.13;3.23;;;;;;;17.77;51.54;99273.31;4977302;28;20617;-85
2022/07/13 05:27:22;;;;;;;3.90;3.00;;;;;;;18.25;51.46;99361.00;4976031;28;20180;-86
2022/07/13 05:29:48;;;;;;;6.03;3.10;;;;;;;18.47;51.00;99356.13;4975907;28;20593;-86
2022/07/13 05:32:13;;;;;;;8.10;3.13;;;;;;;19.58;50.50;99494.22;4976944;28;20199;-84
2022/07/13 05:34:39;;;;;;;4.07;2.80;;;;;;;18.13;48.74;99283.09;4976522;28;20533;-86
2022/07/13 05:37:04;;;;;;;4.23;2.80;;;;;;;20.23;48.56;99619.00;4974437;28;20226;-87
2022/07/13 05:39:29;;;;;;;4.97;2.50;;;;;;;19.66;48.60;99528.53;4995131;28;20202;-86
2022/07/13 05:41:55;;;;;;;3.47;2.87;;;;;;;19.37;48.61;99489.69;4996414;28;20186;-85
2022/07/13 05:44:21;;;;;;;4.47;2.50;;;;;;;19.24;48.02;99444.22;4999254;28;20186;-84
2022/07/13 05:46:46;;;;;;;4.07;2.70;;;;;;;19.78;47.84;99497.81;5009809;28;20603;-85
2022/07/13 05:49:12;;;;;;;5.97;2.90;;;;;;;20.56;47.46;99624.44;5007674;28;20198;-84
2022/07/13 05:51:37;;;;;;;4.20;2.67;;;;;;;19.73;46.70;99424.97;4995827;28;20198;-86
2022/07/13 05:54:03;;;;;;;3.50;2.20;;;;;;;18.65;46.24;99271.75;4995001;28;20254;-87
2022/07/13 05:56:28;;;;;;;3.60;2.33;;;;;;;20.41;46.24;99543.72;4995608;28;20187;-89
2022/07/13 05:58:53;;;;;;;3.37;2.30;;;;;;;18.59;46.08;99181.97;4997282;28;20211;-87
2022/07/13 06:01:19;;;;;;;9.57;3.00;;;;;;;21.31;46.48;99594.88;4995894;28;20194;-87
2022/07/13 06:03:44;;;;;;;6.53;3.00;;;;;;;19.11;46.01;99202.00;4996866;28;20612;-86
2022/07/13 06:06:09;;;;;;;5.13;2.87;;;;;;;19.54;45.88;99253.63;4995586;28;20185;-86
2022/07/13 06:08:37;;;;;;;4.20;2.90;;;;;;;21.72;45.56;99590.69;4994297;28;20198;-87
2022/07/13 06:11:03;;;;;;;5.17;2.43;;;;;;;19.99;45.48;99320.66;4995988;28;20193;-87
2022/07/13 06:13:28;;;;;;;11.50;2.70;;;;;;;20.75;45.50;99435.00;4997325;28;20258;-88
2022/07/13 06:15:54;;;;;;;4.50;2.60;;;;;;;21.16;45.13;99453.19;5000335;28;20574;-88
2022/07/13 06:18:20;;;;;;;5.33;2.30;;;;;;;20.19;44.92;99301.03;4997480;28;20222;-88
2022/07/13 06:20:45;;;;;;;7.07;2.40;;;;;;;22.06;44.28;99581.28;4997489;28;20183;-89
2022/07/13 06:23:10;;;;;;;4.20;2.10;;;;;;;20.78;43.60;99359.53;4996259;28;20190;-88
2022/07/13 06:25:40;;;;;;;3.83;2.37;;;;;;;20.15;43.24;99271.03;4995718;28;20683;-87
2022/07/13 06:28:05;;;;;;;5.37;2.13;;;;;;;22.28;43.22;99574.41;4998163;28;20186;-87
2022/07/13 06:30:32;;;;;;;4.27;2.17;;;;;;;22.00;41.82;99477.31;5000383;28;20191;-88
2022/07/13 06:32:58;;;;;;;2.73;1.90;;;;;;;21.75;42.30;99510.78;4976413;28;20191;-88
2022/07/13 06:35:23;;;;;;;3.17;2.20;;;;;;;21.99;42.89;99530.59;4976294;28;20184;-88
2022/07/13 06:37:49;;;;;;;4.47;2.20;;;;;;;20.80;42.43;99250.59;4967869;28;20238;-87
2022/07/13 06:40:17;;;;;;;6.13;2.17;;;;;;;21.12;42.27;99325.31;4978907;28;20183;-89
2022/07/13 06:42:44;;;;;;;4.53;2.40;;;;;;;23.02;41.79;99550.22;4995809;28;20207;-88
2022/07/13 06:45:09;;;;;;;5.47;2.60;;;;;;;23.29;41.83;99583.69;4994872;28;20274;-88
2022/07/13 06:47:35;;;;;;;4.37;2.20;;;;;;;19.96;41.87;99086.81;4996602;28;20210;-88
2022/07/13 06:50:00;;;;;;;3.27;2.50;;;;;;;22.96;41.48;99521.84;4995719;28;20187;-87
2022/07/13 06:52:26;;;;;;;4.40;2.50;;;;;;;22.29;40.97;99380.09;4998400;28;20663;-88
2022/07/13 06:54:51;;;;;;;4.63;2.23;;;;;;;22.23;41.52;99439.44;4999148;28;20244;-87
2022/07/13 06:57:17;;;;;;;4.07;2.10;;;;;;;23.24;41.28;99557.00;4997247;28;20187;-87
2022/07/13 06:59:42;;;;;;;2.30;2.10;;;;;;;21.60;40.85;99280.59;4996392;28;20190;-87
2022/07/13 07:02:08;;;;;;;5.57;1.93;;;;;;;22.83;40.42;99488.31;4997943;28;20269;-88
2022/07/13 07:04:34;;;;;;;3.33;1.80;;;;;;;23.46;39.07;99543.13;4978699;28;20198;-89
2022/07/13 07:07:00;;;;;;;5.37;2.13;;;;;;;23.67;38.23;99552.47;4998818;28;20211;-88
2022/07/13 07:09:26;;;;;;;4.67;2.00;;;;;;;22.19;38.32;99285.59;4983293;28;20218;-87
2022/07/13 07:11:51;;;;;;;4.50;1.93;;;;;;;23.22;38.73;99491.56;4995502;28;20572;-88
2022/07/13 07:14:17;;;;;;;2.97;2.20;;;;;;;21.99;38.23;99314.03;4977015;28;20663;-88
2022/07/13 07:16:42;;;;;;;4.07;2.13;;;;;;;22.98;38.47;99455.53;4995191;28;20187;-87
2022/07/13 07:19:09;;;;;;;3.00;1.83;;;;;;;20.63;39.33;99079.13;4993604;28;20207;-86
2022/07/13 07:21:34;;;;;;;3.40;1.83;;;;;;;23.00;38.91;99448.63;4976648;28;20287;-88
2022/07/13 07:24:00;;;;;;;2.40;1.97;;;;;;;23.19;39.47;99476.06;4995461;28;20214;-85
2022/07/13 07:26:26;;;;;;;2.70;1.67;;;;;;;22.72;38.86;99371.31;4999725;28;20187;-85
2022/07/13 07:28:51;;;;;;;4.20;1.80;;;;;;;22.85;39.00;99354.88;4997465;28;20190;-87
2022/07/13 07:31:16;;;;;;;4.10;1.90;;;;;;;23.92;38.77;99492.81;4995104;28;20717;-86
2022/07/13 07:33:42;;;;;;;6.77;2.77;;;;;;;23.92;37.85;99422.13;5001122;28;20732;-85
2022/07/13 07:36:07;;;;;;;6.53;3.23;;;;;;;25.29;37.58;99558.72;5001858;28;20266;-85
2022/07/13 07:38:33;;;;;;;3.03;2.00;;;;;;;22.43;37.23;99190.00;4987478;28;20638;-86
2022/07/13 07:40:59;;;;;;;7.20;2.23;;;;;;;23.56;37.17;99361.28;4996695;28;20181;-86
2022/07/13 07:43:25;;;;;;;6.23;2.10;;;;;;;24.17;35.98;99358.09;4996700;28;20191;-85
2022/07/13 07:45:50;;;;;;;4.90;2.07;;;;;;;24.22;36.22;99346.81;4998689;28;20227;-87
2022/07/13 07:48:16;;;;;;;6.30;2.10;;;;;;;24.31;36.26;99375.16;4998202;28;20249;-86
2022/07/13 07:50:41;;;;;;;4.03;2.53;;;;;;;25.02;35.49;99444.19;4996809;28;20230;-88
2022/07/13 07:53:06;;;;;;;4.37;1.97;;;;;;;23.97;34.77;99304.84;4993941;28;20183;-87
2022/07/13 07:55:32;;;;;;;4.97;1.83;;;;;;;24.14;36.08;99386.59;4995970;28;20194;-88
2022/07/13 07:57:58;;;;;;;2.87;2.10;;;;;;;25.42;35.39;99472.09;4981010;28;20203;-89
2022/07/13 08:00:24;;;;;;;6.67;3.43;;;;;;;23.97;34.10;99175.50;4995256;28;20194;-88
2022/07/13 08:02:49;;;;;;;3.53;1.87;;;;;;;25.46;33.65;99419.34;5000955;28;20179;-87
2022/07/13 08:05:16;;;;;;;3.17;1.80;;;;;;;25.88;33.92;99531.94;5000597;28;20214;-86
2022/07/13 08:07:43;;;;;;;5.93;2.03;;;;;;;26.46;33.76;99565.59;5001845;28;20191;-87
2022/07/13 08:10:11;;;;;;;2.97;1.60;;;;;;;26.85;32.28;99565.75;4999275;28;20203;-88
2022/07/13 08:12:36;;;;;;;3.63;1.60;;;;;;;26.39;33.15;99510.34;5001109;28;20182;-88
2022/07/13 08:15:02;;;;;;;5.87;2.13;;;;;;;23.77;34.14;99236.09;4982970;28;20187;-88
2022/07/13 08:17:28;;;;;;;2.47;1.63;;;;;;;25.61;34.01;99574.72;4997472;28;20175;-89
2022/07/13 08:19:54;;;;;;;3.27;1.70;;;;;;;25.74;32.63;99508.81;4996717;28;20211;-91
2022/07/13 08:22:20;;;;;;;3.73;1.60;;;;;;;25.82;32.00;99474.97;4993648;28;20193;-90
2022/07/13 08:24:45;;;;;;;3.70;1.90;;;;;;;25.88;31.16;99436.81;4993977;28;20237;-90
2022/07/13 08:27:11;;;;;;;4.80;2.10;;;;;;;25.49;32.54;99338.97;4980128;28;20644;-90
2022/07/13 08:29:36;;;;;;;4.73;1.93;;;;;;;26.11;32.53;99465.81;5000720;28;20217;-88
2022/07/13 08:32:02;;;;;;;2.43;1.70;;;;;;;25.03;32.15;99312.91;5000666;28;20242;-88
2022/07/13 08:40:05;;;;;;;5.17;2.10;;;;;;;26.07;31.44;99448.56;5001469;28;20202;-88
2022/07/13 08:42:30;;;;;;;2.87;1.50;;;;;;;25.62;32.01;99433.81;4999766;28;20651;-90
2022/07/13 08:44:56;;;;;;;5.50;2.00;;;;;;;26.77;31.18;99571.94;4997137;28;20180;-87
2022/07/13 08:47:22;;;;;;;3.50;1.63;;;;;;;24.27;30.67;99150.09;4997628;28;20221;-89
2022/07/13 08:49:51;;;;;;;4.43;1.80;;;;;;;24.32;31.10;99145.69;4992870;28;20195;-86
2022/07/13 08:52:17;;;;;;;6.68;2.45;;;;;;;26.98;30.25;99490.13;4991764;28;20193;-87
2022/07/13 08:54:44;;;;;;;2.75;1.65;;;;;;;26.55;31.85;99523.88;4991809;28;20644;-89
2022/07/13 08:57:10;;;;;;;2.53;1.50;;;;;;;25.56;31.16;99467.59;4991241;28;20286;-85
2022/07/13 08:59:38;;;;;;;4.53;1.80;;;;;;;26.63;30.69;99555.75;4995513;28;20282;-87
2022/07/13 09:02:04;;;;;;;3.80;1.60;;;;;;;26.73;30.23;99502.72;5006060;28;20290;-88
2022/07/13 09:04:30;;;;;;;3.70;1.63;;;;;;;26.84;30.34;99496.47;5006436;28;20184;-87
2022/07/13 09:06:56;;;;;;;2.63;1.48;;;;;;;27.46;30.88;99565.38;4992974;28;20792;-86
2022/07/13 09:09:35;;;;;;;3.35;1.60;;;;;;;26.98;30.41;99553.34;4992048;28;20246;-87
2022/07/13 09:12:22;;;;;;;4.30;1.40;;;;;;;26.79;29.87;99511.31;4990763;28;20683;-87
2022/07/13 09:14:57;;;;;;;1.75;1.40;;;;;;;27.06;29.58;99548.03;4992721;28;20278;-85
2022/07/13 09:17:42;;;;;;;2.10;1.48;;;;;;;26.71;29.63;99530.47;4991222;28;20194;-87
2022/07/13 09:20:10;;;;;;;5.93;1.70;;;;;;;26.86;30.18;99556.22;4992140;28;20913;-88
2022/07/13 09:22:45;;;;;;;2.53;1.60;;;;;;;26.63;30.31;99554.03;4992282;28;20789;-86
2022/07/13 09:25:14;;;;;;;2.53;1.42;;;;;;;26.30;30.17;99494.91;4991036;28;20179;-85
2022/07/13 09:27:49;;;;;;;2.50;1.70;;;;;;;27.16;30.20;99563.41;4993538;28;20179;-87
2022/07/13 09:30:25;;;;;;;3.05;2.05;;;;;;;27.38;30.19;99558.59;4993854;28;20253;-87
2022/07/13 09:32:55;;;;;;;2.63;1.70;;;;;;;27.41;30.27;99551.59;4992154;28;20189;-86
2022/07/13 09:35:21;;;;;;;1.92;1.70;;;;;;;25.17;29.55;99240.97;4994697;28;20180;-86
2022/07/13 09:37:47;;;;;;;6.88;1.90;;;;;;;26.57;30.07;99454.56;4980124;28;20269;-85
2022/07/13 09:40:16;;;;;;;3.05;1.63;;;;;;;26.72;29.52;99469.88;4991203;28;20634;-85
2022/07/13 09:42:44;;;;;;;2.33;1.70;;;;;;;27.52;29.77;99548.78;4991594;28;20190;-85
2022/07/13 09:47:59;;;;;;;2.72;1.40;;;;;;;26.58;29.43;99432.91;4992661;28;20299;-85
2022/07/13 09:50:38;;;;;;;2.13;1.50;;;;;;;27.31;29.83;99551.81;4994231;28;20570;-86
2022/07/13 09:53:29;;;;;;;4.30;1.67;;;;;;;27.17;29.39;99546.91;4991330;28;20189;-86
2022/07/13 09:56:00;;;;;;;2.10;1.55;;;;;;;26.26;29.08;99412.81;4992593;28;20212;-84
2022/07/13 09:58:30;;;;;;;3.08;1.50;;;;;;;27.21;28.96;99543.34;4994467;28;20235;-84
2022/07/13 10:00:58;;;;;;;3.50;1.50;;;;;;;27.35;29.10;99535.25;4994520;28;20189;-85
2022/07/13 10:03:29;;;;;;;2.25;1.45;;;;;;;26.35;28.84;99286.25;4994792;28;20183;-84
2022/07/13 10:05:55;;;;;;;2.58;1.63;;;;;;;27.48;29.15;99516.78;4985404;28;20196;-86
2022/07/13 10:08:22;;;;;;;2.63;1.70;;;;;;;28.30;28.68;99534.75;4977430;28;20179;-86
2022/07/13 10:10:48;;;;;;;3.60;1.70;;;;;;;27.81;29.16;99524.69;4994608;28;20218;-86
2022/07/13 10:13:14;;;;;;;2.65;1.50;;;;;;;26.71;29.36;99357.28;4990571;28;20194;-86
2022/07/13 10:15:40;;;;;;;3.60;2.13;;;;;;;28.22;28.94;99516.72;4992677;28;20792;-86
2022/07/13 10:18:09;;;;;;;4.85;1.70;;;;;;;28.07;28.63;99515.34;4993249;28;20226;-84
2022/07/13 10:20:38;;;;;;;3.70;1.73;;;;;;;27.78;28.73;99446.69;4993600;28;20187;-85
2022/07/13 10:23:04;;;;;;;2.28;1.58;;;;;;;27.24;28.67;99370.84;4994276;28;20188;-84
2022/07/13 10:25:43;;;;;;;4.72;1.73;;;;;;;27.87;28.15;99364.03;4992833;28;20879;-84
2022/07/13 10:28:11;;;;;;;4.35;1.60;;;;;;;27.08;28.70;99330.50;4994571;28;20187;-86
2022/07/13 10:30:36;;;;;;;8.98;3.53;;;;;;;27.55;29.35;99345.81;4993996;28;20183;-84
2022/07/13 10:33:20;;;;;;;3.10;2.13;;;;;;;28.77;29.08;99499.63;4993986;28;20227;-86
2022/07/13 10:35:51;;;;;;;7.28;2.78;;;;;;;29.43;27.82;99492.44;4994778;28;20185;-86
2022/07/13 10:38:20;;;;;;;5.60;2.10;;;;;;;29.17;27.81;99421.97;4966467;28;20238;-85
2022/07/13 10:40:46;;;;;;;4.72;2.08;;;;;;;28.83;27.36;99317.88;4976349;28;20193;-85
2022/07/13 10:43:14;;;;;;;4.28;1.80;;;;;;;27.87;28.15;99343.22;4994340;28;20183;-87
2022/07/13 10:45:44;;;;;;;4.13;1.80;;;;;;;28.21;28.39;99436.88;4992915;28;20233;-86
2022/07/13 10:48:21;;;;;;;4.93;2.90;;;;;;;28.54;28.71;99498.47;4995226;28;20183;-87
2022/07/13 10:50:57;;;;;;;6.90;3.45;;;;;;;27.40;28.12;99314.94;4994579;28;20276;-86
2022/07/13 10:53:37;;;;;;;2.50;1.70;;;;;;;27.75;30.05;99480.56;4992656;28;20178;-88
2022/07/13 10:56:03;;;;;;;4.65;3.03;;;;;;;27.28;30.39;99407.13;4988181;28;20277;-84
2022/07/13 10:58:31;;;;;;;3.05;2.40;;;;;;;28.38;29.05;99491.97;4990827;28;20287;-85
2022/07/13 11:00:59;;;;;;;3.63;1.77;;;;;;;28.66;28.98;99482.56;4970991;28;20201;-87
2022/07/13 11:03:47;;;;;;;4.18;2.20;;;;;;;27.96;28.91;99433.22;4990483;28;20706;-85
2022/07/13 11:06:15;;;;;;;2.45;1.80;;;;;;;25.77;29.12;99037.56;4991501;28;20196;-85
2022/07/13 11:08:41;;;;;;;2.10;1.80;;;;;;;28.31;29.63;99477.44;4991001;28;20208;-85
2022/07/13 11:11:12;;;;;;;5.93;2.10;;;;;;;28.03;30.05;99471.22;4991942;28;20646;-86
2022/07/13 11:13:38;;;;;;;2.67;1.80;;;;;;;26.98;30.37;99341.97;4994403;28;20657;-85
2022/07/13 11:16:06;;;;;;;4.65;2.05;;;;;;;27.35;29.73;99255.28;4993911;28;20188;-85
2022/07/13 11:18:38;;;;;;;9.68;2.60;;;;;;;28.22;29.29;99338.78;4993426;28;20232;-84
2022/07/13 11:21:14;;;;;;;5.85;2.20;;;;;;;26.87;30.14;99188.94;4994656;28;20616;-85
2022/07/13 11:26:46;;;;;;;3.78;1.80;;;;;;;28.40;28.23;99447.69;4993228;28;20225;-86
2022/07/13 11:29:32;;;;;;;4.18;1.73;;;;;;;28.63;28.46;99455.72;4992961;28;20197;-87
2022/07/13 11:32:02;;;;;;;2.08;1.60;;;;;;;28.07;28.17;99376.53;4993045;28;20625;-88
2022/07/13 11:34:29;;;;;;;2.53;1.50;;;;;;;29.22;27.43;99446.16;4997161;28;20190;-86
2022/07/13 11:36:57;;;;;;;3.05;1.70;;;;;;;27.24;27.57;99149.84;4992951;28;20186;-87
2022/07/13 11:39:36;;;;;;;2.70;1.60;;;;;;;26.72;27.21;99158.13;4981338;28;20246;-86
2022/07/13 11:42:09;;;;;;;3.55;1.65;;;;;;;28.67;27.61;99406.09;4992579;28;20693;-85
2022/07/13 11:44:36;;;;;;;4.60;1.70;;;;;;;29.16;27.52;99352.44;4992901;28;20230;-87